Time;durP1;ratioP1;P1;durP2;ratioP2;P2;SDS_P1;SDS_P2;PMS_P1;PMS_P2;Temp;Humidity;BMP_temperature;BMP_pressure;BME280_temperature;BME280_humidity;BME280_pressure;Samples;Min_cycle;Max_cycle;Signal;HPM_P1;HPM_P2
2022/08/12 00:44:26;;;;;;;8.93;6.10;;;19.60;74.70;;;;;;4974668;28;20211;-65
2022/08/12 00:46:55;;;;;;;9.63;5.83;;;19.50;73.30;;;;;;4974029;28;20843;-65
2022/08/12 00:49:23;;;;;;;7.77;5.67;;;19.50;73.60;;;;;;4974734;28;20220;-65
2022/08/12 00:52:08;;;;;;;10.00;6.17;;;19.50;74.80;;;;;;4974529;28;20653;-65
2022/08/12 00:54:38;;;;;;;8.27;6.07;;;19.40;75.60;;;;;;4974462;28;20640;-65
2022/08/12 00:57:09;;;;;;;8.07;6.00;;;19.40;75.60;;;;;;4974056;28;20209;-65
2022/08/12 00:59:37;;;;;;;10.60;5.70;;;19.40;76.30;;;;;;4974241;28;20218;-65
2022/08/12 01:02:05;;;;;;;6.73;5.87;;;19.30;78.70;;;;;;4974397;28;20228;-65
2022/08/12 01:12:51;;;;;;;10.40;5.50;;;19.10;82.60;;;;;;4974081;28;20662;-65
2022/08/12 01:15:19;;;;;;;6.80;4.93;;;19.00;84.00;;;;;;4974191;28;20212;-65
2022/08/12 01:17:46;;;;;;;6.30;5.20;;;19.00;83.30;;;;;;4973840;28;20272;-65
2022/08/12 01:20:18;;;;;;;6.50;5.83;;;18.90;85.50;;;;;;4973860;28;20208;-65
2022/08/12 01:23:01;;;;;;;7.47;5.57;;;18.90;85.80;;;;;;4973833;28;20255;-65
2022/08/12 01:25:35;;;;;;;11.43;5.27;;;18.90;85.70;;;;;;4973973;28;20212;-65
2022/08/12 01:28:03;;;;;;;6.70;4.97;;;18.80;83.60;;;;;;4973615;28;20581;-65
2022/08/12 01:30:33;;;;;;;9.50;5.43;;;18.90;81.80;;;;;;4973770;28;20208;-65
2022/08/12 01:33:04;;;;;;;6.50;5.30;;;18.90;81.70;;;;;;4973636;28;20262;-65
2022/08/12 01:35:32;;;;;;;7.40;5.33;;;18.90;80.60;;;;;;4973845;28;20208;-65
2022/08/12 01:38:03;;;;;;;6.60;5.30;;;19.00;80.90;;;;;;4973245;28;20211;-65
2022/08/12 01:40:32;;;;;;;5.57;4.97;;;19.00;81.10;;;;;;4973683;28;20226;-65
2022/08/12 01:43:06;;;;;;;6.83;4.93;;;19.00;83.40;;;;;;4973544;28;20240;-65
2022/08/12 01:45:33;;;;;;;6.67;5.20;;;19.00;84.20;;;;;;4973803;28;20196;-65
2022/08/12 01:48:11;;;;;;;6.60;5.33;;;18.90;96.40;;;;;;4973132;28;20741;-65
2022/08/12 01:50:50;;;;;;;6.63;5.60;;;18.80;89.00;;;;;;4973606;28;20219;-65
2022/08/12 01:53:19;;;;;;;9.90;5.40;;;18.70;89.50;;;;;;4973733;28;20242;-65
2022/08/12 01:55:49;;;;;;;6.47;5.60;;;18.60;89.10;;;;;;4973500;28;20646;-65
2022/08/12 01:58:27;;;;;;;7.70;5.60;;;18.60;89.30;;;;;;4973293;28;20204;-65
2022/08/12 02:00:59;;;;;;;5.90;5.30;;;18.60;88.40;;;;;;4973616;28;20212;-65
2022/08/12 02:12:24;;;;;;;7.17;5.50;;;18.20;91.40;;;;;;4973217;28;20230;-65
2022/08/12 02:14:56;;;;;;;10.97;5.03;;;18.20;92.30;;;;;;4973471;28;20302;-65
2022/08/12 02:17:35;;;;;;;10.50;5.90;;;18.30;92.50;;;;;;4972941;28;20201;-65
2022/08/12 02:20:09;;;;;;;7.73;6.13;;;18.20;93.20;;;;;;4972982;28;20270;-65
2022/08/12 02:22:39;;;;;;;6.97;5.83;;;18.20;93.60;;;;;;4973100;28;20231;-65
2022/08/12 02:25:09;;;;;;;9.03;5.73;;;18.20;94.10;;;;;;4973306;28;20278;-65
2022/08/12 02:27:41;;;;;;;7.67;6.37;;;18.10;95.00;;;;;;4972776;28;20232;-65
2022/08/12 02:30:10;;;;;;;7.53;5.63;;;18.10;95.90;;;;;;4973217;28;20208;-64
2022/08/12 02:32:39;;;;;;;8.67;6.30;;;18.00;95.80;;;;;;4972920;28;20236;-65
2022/08/12 02:35:09;;;;;;;8.20;6.10;;;17.90;99.90;;;;;;4973063;28;20299;-65
2022/08/12 02:37:38;;;;;;;7.03;5.67;;;17.90;98.30;;;;;;4972791;28;20295;-64
2022/08/12 02:40:07;;;;;;;9.57;6.17;;;17.80;99.90;;;;;;4973179;28;20278;-64
2022/08/12 02:42:35;;;;;;;11.27;6.43;;;17.80;99.90;;;;;;4973216;28;20231;-66
2022/08/12 02:45:07;;;;;;;10.27;6.40;;;17.80;99.90;;;;;;4973204;28;20208;-64
2022/08/12 02:47:39;;;;;;;13.10;6.83;;;17.70;99.90;;;;;;4972662;28;20857;-64
2022/08/12 02:50:07;;;;;;;12.37;7.07;;;17.60;99.90;;;;;;4972902;28;20295;-64
2022/08/12 02:52:34;;;;;;;9.37;7.30;;;17.60;99.90;;;;;;4973103;28;20647;-64
2022/08/12 02:55:11;;;;;;;14.47;7.43;;;17.60;99.90;;;;;;4972675;28;20676;-64
2022/08/12 02:57:39;;;;;;;11.47;7.70;;;17.50;99.90;;;;;;4972617;28;20269;-64
2022/08/12 03:00:09;;;;;;;11.90;7.40;;;17.50;99.90;;;;;;4972723;28;20212;-64
2022/08/12 03:02:38;;;;;;;15.13;7.37;;;17.40;99.90;;;;;;4973019;28;20240;-64
2022/08/12 03:05:05;;;;;;;13.70;7.63;;;17.40;99.90;;;;;;4972882;28;20212;-64
2022/08/12 03:07:37;;;;;;;11.00;7.10;;;17.40;99.90;;;;;;4972620;28;20271;-64
2022/08/12 03:10:08;;;;;;;10.43;7.53;;;17.40;99.90;;;;;;4972780;28;20214;-64
2022/08/12 03:12:37;;;;;;;12.03;7.27;;;17.40;99.90;;;;;;4973079;28;20311;-63
2022/08/12 03:15:09;;;;;;;12.87;7.83;;;17.40;99.90;;;;;;4972706;28;20271;-64
2022/08/12 03:17:46;;;;;;;11.77;7.90;;;17.30;99.90;;;;;;4972865;28;20232;-64
2022/08/12 03:20:16;;;;;;;10.63;7.97;;;17.30;99.90;;;;;;4972494;28;20733;-63
2022/08/12 03:22:44;;;;;;;10.20;7.87;;;17.30;99.90;;;;;;4979150;28;20253;-64
2022/08/12 03:25:15;;;;;;;10.13;7.10;;;17.20;99.90;;;;;;4990024;28;20209;-64
2022/08/12 03:27:50;;;;;;;12.47;7.80;;;17.20;99.90;;;;;;4984941;28;20315;-64
2022/08/12 03:30:20;;;;;;;10.47;7.13;;;17.30;99.90;;;;;;4980344;28;20306;-64
2022/08/12 03:32:48;;;;;;;12.37;7.83;;;17.30;99.90;;;;;;4974613;28;20240;-63
2022/08/12 03:35:20;;;;;;;10.60;7.20;;;17.30;99.90;;;;;;4975950;28;20220;-64
2022/08/12 03:37:48;;;;;;;12.90;7.70;;;17.30;99.90;;;;;;4975680;28;20603;-64
2022/08/12 03:41:33;;;;;;;11.27;7.17;;;17.20;99.90;;;;;;4975930;28;20213;-64
2022/08/12 04:02:25;;;;;;;9.40;6.93;;;16.90;99.90;;;;;;4975385;28;20223;-63
2022/08/12 04:04:52;;;;;;;10.70;7.33;;;16.90;99.90;;;;;;4975312;28;20220;-64
2022/08/12 04:07:20;;;;;;;11.10;7.93;;;16.90;99.90;;;;;;4975130;28;20236;-64
2022/08/12 04:09:46;;;;;;;11.97;7.77;;;16.90;99.90;;;;;;4975495;28;20275;-63
2022/08/12 04:14:59;;;;;;;10.20;7.10;;;16.90;99.90;;;;;;4975392;28;20282;-65
2022/08/12 04:17:27;;;;;;;13.77;7.50;;;16.90;99.90;;;;;;4975022;28;20205;-63
2022/08/12 04:19:55;;;;;;;13.20;7.50;;;16.90;99.90;;;;;;4975317;28;20637;-64
2022/08/12 04:22:24;;;;;;;10.80;7.00;;;16.90;99.90;;;;;;4975058;28;20228;-64
2022/08/12 04:24:53;;;;;;;10.40;7.67;;;16.90;99.90;;;;;;4975059;28;20208;-64
2022/08/12 04:27:20;;;;;;;9.50;8.00;;;17.00;99.90;;;;;;4974497;28;20714;-63
2022/08/12 04:29:46;;;;;;;11.50;8.40;;;16.90;99.90;;;;;;4974788;28;20243;-63
2022/08/12 04:32:14;;;;;;;10.53;7.60;;;16.90;99.90;;;;;;4974912;28;20326;-64
2022/08/12 04:34:42;;;;;;;9.73;7.53;;;16.90;99.90;;;;;;4974880;28;20212;-64
2022/08/12 04:37:10;;;;;;;11.00;8.47;;;16.90;99.90;;;;;;4974530;28;20208;-64
2022/08/12 04:39:39;;;;;;;11.70;7.20;;;16.90;99.90;;;;;;4974737;28;20235;-63
2022/08/12 04:42:06;;;;;;;11.63;7.47;;;16.90;99.90;;;;;;4974674;28;20232;-64
2022/08/12 04:44:33;;;;;;;8.63;7.60;;;16.90;99.90;;;;;;4974341;28;20208;-64
2022/08/12 04:46:59;;;;;;;11.43;7.53;;;16.90;99.90;;;;;;4974723;28;20347;-64
2022/08/12 04:49:27;;;;;;;11.23;7.77;;;16.90;99.90;;;;;;4974612;28;20299;-63
2022/08/12 04:51:58;;;;;;;11.03;7.07;;;17.00;99.90;;;;;;4974486;28;20599;-65
2022/08/12 04:54:24;;;;;;;17.17;7.10;;;17.00;99.90;;;;;;4974555;28;20236;-64
2022/08/12 04:56:52;;;;;;;8.53;6.77;;;17.00;99.90;;;;;;4974074;28;20217;-64
2022/08/12 04:59:19;;;;;;;9.07;7.30;;;17.10;99.90;;;;;;4974371;28;20209;-64
2022/08/12 05:01:50;;;;;;;8.83;6.80;;;17.10;99.90;;;;;;4974622;28;20233;-64
2022/08/12 05:04:18;;;;;;;11.43;7.50;;;17.20;99.90;;;;;;4974532;28;20236;-64
2022/08/12 05:06:46;;;;;;;34.83;20.97;;;17.30;99.90;;;;;;4974314;28;20777;-64
2022/08/12 05:09:15;;;;;;;14.07;10.97;;;17.40;99.90;;;;;;4974340;28;20224;-64
2022/08/12 05:11:42;;;;;;;10.40;8.00;;;17.50;99.90;;;;;;4974052;28;20228;-63
2022/08/12 05:14:10;;;;;;;10.07;7.87;;;17.50;99.90;;;;;;4974445;28;20204;-64
2022/08/12 05:16:38;;;;;;;14.30;7.07;;;17.60;99.90;;;;;;4974025;28;20212;-63
2022/08/12 05:19:05;;;;;;;7.90;6.63;;;17.70;99.90;;;;;;4974276;28;20232;-64
2022/08/12 05:21:32;;;;;;;8.67;7.57;;;17.80;99.90;;;;;;4974037;28;20283;-64
2022/08/12 05:23:59;;;;;;;9.23;6.93;;;17.90;99.90;;;;;;4973916;28;20667;-64
2022/08/12 05:26:28;;;;;;;11.70;6.97;;;17.90;99.90;;;;;;4973759;28;20626;-64
2022/08/12 05:28:55;;;;;;;10.63;6.30;;;18.00;99.90;;;;;;4973927;28;20228;-64
2022/08/12 05:31:22;;;;;;;11.97;6.40;;;18.00;99.90;;;;;;4973743;28;20239;-64
2022/08/12 05:33:49;;;;;;;10.20;6.53;;;18.10;99.90;;;;;;4973677;28;20827;-64
2022/08/12 05:36:18;;;;;;;7.27;6.07;;;18.20;99.90;;;;;;4973425;28;20208;-64
2022/08/12 05:38:58;;;;;;;6.83;6.10;;;18.30;99.90;;;;;;4973268;28;20239;-66
2022/08/12 05:41:28;;;;;;;9.80;6.03;;;18.40;99.90;;;;;;4973997;28;20232;-64
2022/08/12 05:43:56;;;;;;;9.30;6.20;;;18.50;99.90;;;;;;4973603;28;20212;-64
2022/08/12 05:46:25;;;;;;;6.90;5.50;;;18.60;99.90;;;;;;4973138;28;20208;-64
2022/08/12 05:48:54;;;;;;;6.33;5.60;;;18.60;99.90;;;;;;4973270;28;20232;-64
2022/08/12 05:51:23;;;;;;;6.93;5.80;;;18.70;99.90;;;;;;4973496;28;20312;-63
2022/08/12 05:53:50;;;;;;;6.63;5.93;;;18.80;99.90;;;;;;4973477;28;20208;-64
2022/08/12 05:56:22;;;;;;;7.83;5.50;;;18.90;99.90;;;;;;4973036;28;20244;-64
2022/08/12 05:58:51;;;;;;;8.23;5.70;;;18.90;99.90;;;;;;4973350;28;20264;-64
2022/08/12 06:01:18;;;;;;;8.60;5.37;;;19.00;99.90;;;;;;4973490;28;20287;-64
2022/08/12 06:03:44;;;;;;;10.07;6.13;;;19.10;99.90;;;;;;4973017;28;20795;-64
2022/08/12 06:06:11;;;;;;;11.77;5.83;;;19.20;99.90;;;;;;4973081;28;20772;-64
2022/08/12 06:08:38;;;;;;;12.60;5.57;;;19.30;99.90;;;;;;4973344;28;20682;-64
2022/08/12 06:11:06;;;;;;;9.77;5.83;;;19.40;99.90;;;;;;4973247;28;20624;-64
2022/08/12 06:13:37;;;;;;;9.87;5.50;;;19.50;99.90;;;;;;4973456;28;20336;-63
2022/08/12 06:16:06;;;;;;;9.60;4.80;;;19.50;99.90;;;;;;4972688;28;20217;-64
2022/08/12 06:18:33;;;;;;;6.20;4.97;;;19.80;99.90;;;;;;4973389;28;20646;-64
2022/08/12 06:21:00;;;;;;;6.87;4.93;;;19.90;99.90;;;;;;4972917;28;20267;-64
2022/08/12 06:23:27;;;;;;;8.10;5.00;;;20.10;99.90;;;;;;4973035;28;20734;-64
2022/08/12 06:25:55;;;;;;;8.50;4.63;;;20.30;99.90;;;;;;4972784;28;20235;-64
2022/08/12 06:28:22;;;;;;;7.83;4.83;;;20.50;99.90;;;;;;4972979;28;20232;-64
2022/08/12 06:30:49;;;;;;;6.43;4.40;;;20.70;99.90;;;;;;4972444;28;20204;-64
2022/08/12 06:33:18;;;;;;;6.97;4.53;;;20.80;99.90;;;;;;4973235;28;20224;-64
2022/08/12 06:35:46;;;;;;;6.27;4.60;;;20.90;99.90;;;;;;4973095;28;20215;-64
2022/08/12 06:38:15;;;;;;;6.17;4.60;;;21.10;99.90;;;;;;4972886;28;20239;-64
2022/08/12 06:43:27;;;;;;;6.50;4.30;;;21.30;99.90;;;;;;4973277;28;20226;-64
2022/08/12 06:45:56;;;;;;;5.30;4.70;;;21.40;99.90;;;;;;4972762;28;20243;-64
2022/08/12 06:48:25;;;;;;;5.27;4.77;;;21.50;99.90;;;;;;4972693;28;20228;-64
2022/08/12 06:50:52;;;;;;;5.53;4.87;;;21.60;99.90;;;;;;4967900;28;20312;-64
2022/08/12 06:53:19;;;;;;;7.17;4.90;;;21.60;99.90;;;;;;4963673;28;20254;-69
2022/08/12 06:55:46;;;;;;;9.43;4.83;;;21.70;99.90;;;;;;4970520;28;20217;-69
2022/08/12 06:58:13;;;;;;;6.00;3.80;;;21.80;99.90;;;;;;4969021;28;20267;-68
2022/08/12 07:00:42;;;;;;;10.67;4.30;;;21.90;99.90;;;;;;4970978;28;20311;-68
2022/08/12 07:03:16;;;;;;;5.87;3.53;;;21.90;99.90;;;;;;4989226;28;20227;-67
2022/08/12 07:05:44;;;;;;;6.63;3.40;;;22.10;99.90;;;;;;4990395;28;20223;-67
2022/08/12 07:08:12;;;;;;;5.13;3.20;;;22.20;99.90;;;;;;4978338;28;20224;-67
2022/08/12 07:10:41;;;;;;;5.03;3.67;;;22.30;99.90;;;;;;4954160;29;20217;-68
2022/08/12 07:13:08;;;;;;;7.23;3.63;;;22.40;99.90;;;;;;4953390;29;20232;-68
2022/08/12 07:15:36;;;;;;;4.93;3.73;;;22.50;99.90;;;;;;4954250;29;20300;-66
2022/08/12 07:18:08;;;;;;;8.00;3.73;;;22.60;99.90;;;;;;4953824;29;20591;-66
2022/08/12 07:20:35;;;;;;;3.70;3.27;;;22.80;99.90;;;;;;4953671;29;20271;-66
2022/08/12 07:23:05;;;;;;;6.47;3.83;;;22.90;99.90;;;;;;4953705;29;20728;-65
2022/08/12 07:25:34;;;;;;;9.37;4.23;;;23.00;99.90;;;;;;4954083;29;20217;-65
2022/08/12 07:28:02;;;;;;;6.23;3.70;;;23.10;99.90;;;;;;4953885;29;20284;-69
2022/08/12 07:30:30;;;;;;;6.77;3.77;;;23.20;99.90;;;;;;4953641;29;20209;-67
2022/08/12 07:33:00;;;;;;;8.03;3.80;;;23.40;99.90;;;;;;4953721;29;20252;-66
2022/08/12 07:35:28;;;;;;;7.80;4.10;;;23.50;99.90;;;;;;4954182;29;20205;-65
2022/08/12 07:37:55;;;;;;;8.57;3.90;;;23.70;99.90;;;;;;4953967;28;20680;-65
2022/08/12 07:40:24;;;;;;;7.87;4.57;;;23.80;99.90;;;;;;4952358;29;20209;-64
2022/08/12 07:42:51;;;;;;;7.00;4.23;;;23.90;99.90;;;;;;4953634;29;20233;-65
2022/08/12 07:45:19;;;;;;;6.50;3.70;;;24.00;99.90;;;;;;4954213;29;20244;-64
2022/08/12 07:47:47;;;;;;;6.70;4.20;;;24.20;99.90;;;;;;4952113;28;20755;-65
2022/08/12 07:50:15;;;;;;;7.40;4.23;;;24.30;99.90;;;;;;4954588;29;20209;-65
2022/08/12 07:52:45;;;;;;;9.07;4.40;;;24.50;99.90;;;;;;4953746;29;20228;-65
2022/08/12 07:55:13;;;;;;;7.87;4.23;;;24.60;99.90;;;;;;4953845;29;20586;-65
2022/08/12 07:57:56;;;;;;;10.93;4.10;;;24.80;99.90;;;;;;4953782;29;20638;-66
2022/08/12 08:00:23;;;;;;;7.50;4.10;;;25.00;99.90;;;;;;4954002;29;20296;-66
2022/08/12 08:02:51;;;;;;;5.77;4.23;;;25.10;99.90;;;;;;4954344;29;20225;-65
2022/08/12 08:05:18;;;;;;;10.00;4.13;;;25.30;99.90;;;;;;4953835;28;20223;-65
2022/08/12 08:07:44;;;;;;;9.00;4.10;;;25.40;99.90;;;;;;4952411;29;20216;-65
2022/08/12 08:10:12;;;;;;;5.90;3.77;;;25.50;99.90;;;;;;4953385;29;20232;-65
2022/08/12 08:12:53;;;;;;;8.07;3.60;;;25.60;99.90;;;;;;4953223;28;20705;-65
2022/08/12 08:15:23;;;;;;;6.53;3.90;;;25.80;99.90;;;;;;4954208;29;20205;-65
2022/08/12 08:17:58;;;;;;;13.47;8.10;;;25.80;99.90;;;;;;4952731;28;20858;-65
2022/08/12 08:20:27;;;;;;;4.30;3.37;;;26.00;99.90;;;;;;4952835;29;20305;-64
2022/08/12 08:22:58;;;;;;;5.93;3.43;;;26.10;99.90;;;;;;4966189;28;20228;-64
2022/08/12 08:25:30;;;;;;;6.73;3.50;;;26.20;99.90;;;;;;4974787;28;20212;-64
2022/08/12 08:28:01;;;;;;;4.00;2.83;;;26.30;99.90;;;;;;4974811;28;20278;-63
2022/08/12 08:30:31;;;;;;;3.70;2.80;;;26.50;99.90;;;;;;4975102;28;20208;-64
2022/08/12 08:32:58;;;;;;;5.80;3.17;;;26.70;99.90;;;;;;4974149;28;20294;-64
2022/08/12 08:35:26;;;;;;;5.20;3.17;;;26.80;99.90;;;;;;4974920;28;20212;-64
2022/08/12 08:37:54;;;;;;;7.53;2.70;;;26.90;99.90;;;;;;4974402;28;20212;-63
2022/08/12 08:43:06;;;;;;;5.57;2.80;;;27.10;99.90;;;;;;4974681;28;20298;-63
2022/08/12 08:45:34;;;;;;;4.43;2.60;;;27.10;99.90;;;;;;4974652;28;20745;-64
2022/08/12 08:48:01;;;;;;;5.73;3.00;;;27.10;99.90;;;;;;4974421;28;20239;-64
2022/08/12 08:50:28;;;;;;;5.20;2.43;;;27.20;99.90;;;;;;4974620;28;20207;-64
2022/08/12 08:52:55;;;;;;;3.27;2.60;;;27.20;99.90;;;;;;4969832;28;20232;-66
2022/08/12 08:55:21;;;;;;;2.57;2.37;;;27.30;99.90;;;;;;4971032;28;20570;-67
2022/08/12 08:57:53;;;;;;;5.97;2.60;;;27.30;99.90;;;;;;4975631;28;20208;-67
2022/08/12 09:00:21;;;;;;;6.77;2.50;;;27.40;99.90;;;;;;4973613;28;20244;-68
2022/08/12 09:02:49;;;;;;;4.27;2.40;;;27.60;99.90;;;;;;4973807;28;20232;-66
2022/08/12 09:05:17;;;;;;;3.93;2.10;;;27.60;99.90;;;;;;4973927;28;20271;-66
2022/08/12 09:07:45;;;;;;;4.17;2.10;;;27.80;99.90;;;;;;4973786;28;20609;-66
2022/08/12 09:10:15;;;;;;;2.60;2.20;;;27.80;99.90;;;;;;4973416;28;20235;-66
2022/08/12 09:15:26;;;;;;;5.23;2.37;;;27.90;99.90;;;;;;4973485;28;20207;-67
2022/08/12 09:17:55;;;;;;;4.63;1.83;;;28.00;99.90;;;;;;4973682;28;20217;-66
2022/08/12 09:20:24;;;;;;;2.60;1.83;;;28.10;99.90;;;;;;4973546;28;20299;-67
2022/08/12 09:22:50;;;;;;;2.47;2.00;;;28.10;99.90;;;;;;4973507;28;20228;-66
2022/08/12 09:25:17;;;;;;;2.90;2.13;;;28.10;99.90;;;;;;4973188;28;20216;-67
2022/08/12 09:27:45;;;;;;;2.77;2.10;;;28.20;99.90;;;;;;4973393;28;20299;-69
2022/08/12 09:30:14;;;;;;;1.67;1.57;;;28.30;99.90;;;;;;4972781;28;20266;-69
2022/08/12 09:32:43;;;;;;;4.43;1.87;;;28.40;99.90;;;;;;4973390;28;20236;-68
2022/08/12 09:35:11;;;;;;;2.07;1.87;;;28.50;99.90;;;;;;4973875;28;20204;-68
2022/08/12 09:37:38;;;;;;;4.87;2.17;;;28.50;99.90;;;;;;4973790;28;20635;-69
2022/08/12 09:40:06;;;;;;;2.63;1.80;;;28.50;99.90;;;;;;4973809;28;20212;-68
2022/08/12 09:45:32;;;;;;;4.60;2.50;;;28.60;99.90;;;;;;4932260;29;20341;-66
2022/08/12 09:48:02;;;;;;;2.40;2.00;;;28.60;99.90;;;;;;4932177;29;20210;-67
2022/08/12 09:50:30;;;;;;;6.37;1.97;;;28.70;99.90;;;;;;4950878;28;20327;-67
2022/08/12 09:53:08;;;;;;;2.03;1.80;;;28.70;99.90;;;;;;4973072;28;20291;-64
2022/08/12 09:55:36;;;;;;;7.67;1.97;;;28.70;99.90;;;;;;4972900;28;20211;-68
2022/08/12 09:58:03;;;;;;;4.53;1.97;;;28.70;99.90;;;;;;4972879;28;20220;-67
2022/08/12 10:00:33;;;;;;;4.57;2.00;;;28.80;99.90;;;;;;4973013;28;20267;-65
2022/08/12 10:03:03;;;;;;;5.10;2.07;;;28.80;99.90;;;;;;4973028;28;20228;-68
2022/08/12 10:05:35;;;;;;;4.20;2.20;;;28.90;99.90;;;;;;4972402;28;20212;-68
2022/08/12 10:08:02;;;;;;;3.10;2.03;;;28.90;99.90;;;;;;4972864;28;20216;-68
2022/08/12 10:10:29;;;;;;;3.07;2.07;;;28.90;99.90;;;;;;4972799;28;20582;-69
2022/08/12 10:15:45;;;;;;;4.20;2.20;;;28.80;99.90;;;;;;4972349;28;20679;-70
2022/08/12 10:18:13;;;;;;;2.50;2.00;;;28.90;99.90;;;;;;4972369;28;20241;-69
2022/08/12 10:20:41;;;;;;;3.90;2.20;;;29.00;99.90;;;;;;4972437;28;20208;-70
2022/08/12 10:23:08;;;;;;;5.23;2.03;;;29.00;99.90;;;;;;4973027;28;20232;-65
2022/08/12 10:31:06;;;;;;;4.20;2.30;;;29.20;99.90;;;;;;4955442;28;20705;-65
2022/08/12 10:33:33;;;;;;;5.53;2.20;;;29.10;99.90;;;;;;4972785;28;20204;-65
2022/08/12 10:36:03;;;;;;;4.30;2.30;;;29.10;99.90;;;;;;4972243;28;20236;-66
2022/08/12 10:38:30;;;;;;;4.43;2.43;;;29.10;99.90;;;;;;4972038;28;20223;-66
2022/08/12 10:43:42;;;;;;;4.33;2.30;;;29.30;99.90;;;;;;4991706;28;20216;-65
2022/08/12 10:46:16;;;;;;;5.07;2.07;;;29.20;99.90;;;;;;4991722;28;20730;-65
2022/08/12 10:48:46;;;;;;;2.30;2.00;;;29.20;99.90;;;;;;4977661;28;20207;-69
2022/08/12 10:51:16;;;;;;;4.77;2.40;;;29.20;99.90;;;;;;4976331;28;20214;-68
2022/08/12 10:53:43;;;;;;;5.30;2.13;;;29.40;99.90;;;;;;4976447;28;20596;-66
2022/08/12 10:56:10;;;;;;;4.67;2.20;;;29.30;99.90;;;;;;4975605;28;20754;-67
2022/08/12 10:58:37;;;;;;;2.70;2.10;;;29.50;99.90;;;;;;4976420;28;20569;-67
2022/08/12 11:01:04;;;;;;;2.53;2.00;;;29.60;99.90;;;;;;4976705;28;20288;-65
2022/08/12 11:03:33;;;;;;;3.87;2.20;;;29.60;99.90;;;;;;4976286;28;20216;-65
2022/08/12 11:06:01;;;;;;;3.13;2.00;;;29.70;99.90;;;;;;4975495;28;20212;-64
2022/08/12 11:08:29;;;;;;;5.20;2.10;;;29.60;99.90;;;;;;4976453;28;20230;-65
2022/08/12 11:10:55;;;;;;;5.57;2.47;;;29.50;99.90;;;;;;4976410;28;20232;-69
2022/08/12 11:13:23;;;;;;;2.23;1.90;;;29.40;99.90;;;;;;4976148;28;20204;-69
2022/08/12 11:15:51;;;;;;;2.60;2.20;;;29.40;99.90;;;;;;4975829;28;20214;-69
2022/08/12 11:18:18;;;;;;;3.67;2.07;;;29.50;99.90;;;;;;4976020;28;20638;-66
2022/08/12 11:20:46;;;;;;;4.43;2.50;;;29.60;99.90;;;;;;4975800;28;20205;-67
2022/08/12 11:23:13;;;;;;;4.40;1.97;;;29.60;99.90;;;;;;4976124;28;20233;-67
2022/08/12 11:25:42;;;;;;;3.37;2.20;;;29.70;99.90;;;;;;4975586;28;20208;-68
2022/08/12 11:28:09;;;;;;;4.77;1.70;;;29.80;99.90;;;;;;4975512;28;20212;-64
2022/08/12 11:30:36;;;;;;;2.17;1.80;;;29.80;99.90;;;;;;4975596;28;20259;-64
2022/08/12 11:33:03;;;;;;;2.00;1.80;;;29.80;99.90;;;;;;4975693;28;20287;-65
2022/08/12 11:35:29;;;;;;;2.73;1.67;;;29.70;99.90;;;;;;4975680;28;20256;-65
2022/08/12 11:37:56;;;;;;;2.60;1.90;;;29.70;99.90;;;;;;4975232;28;20212;-64
2022/08/12 11:40:23;;;;;;;4.03;2.10;;;29.60;99.90;;;;;;4975804;28;20646;-65
2022/08/12 11:42:51;;;;;;;1.87;1.70;;;29.60;99.90;;;;;;4975184;28;20715;-64
2022/08/12 11:45:18;;;;;;;3.90;1.80;;;29.40;98.60;;;;;;4974941;28;20212;-66
2022/08/12 11:47:45;;;;;;;7.83;2.63;;;29.30;99.90;;;;;;4975199;28;20244;-66
2022/08/12 11:50:12;;;;;;;3.17;2.00;;;29.40;99.90;;;;;;4975533;28;20728;-71
2022/08/12 11:52:39;;;;;;;2.20;2.00;;;29.50;99.90;;;;;;4974496;28;20731;-65
2022/08/12 11:55:06;;;;;;;3.73;2.10;;;29.60;99.90;;;;;;4975073;28;20212;-67
2022/08/12 11:57:33;;;;;;;3.50;2.00;;;29.60;98.90;;;;;;4974795;28;20212;-67
2022/08/12 12:00:02;;;;;;;3.17;2.20;;;29.60;99.90;;;;;;4974931;28;20200;-67
2022/08/12 12:02:29;;;;;;;2.87;2.10;;;29.60;99.90;;;;;;4975270;28;20233;-66
2022/08/12 12:04:56;;;;;;;3.73;2.30;;;29.70;99.90;;;;;;4974883;28;20256;-66
2022/08/12 12:07:23;;;;;;;2.37;1.93;;;29.80;99.90;;;;;;4974708;28;20207;-68
2022/08/12 12:09:49;;;;;;;3.30;1.70;;;30.00;99.90;;;;;;4974829;28;20224;-65
2022/08/12 12:12:16;;;;;;;3.57;1.90;;;30.00;99.90;;;;;;4974959;28;20228;-67
2022/08/12 12:14:43;;;;;;;3.57;2.03;;;29.80;99.90;;;;;;4974857;28;20216;-67
2022/08/12 12:17:11;;;;;;;2.77;1.70;;;29.50;99.40;;;;;;4974491;28;20212;-65
2022/08/12 12:19:38;;;;;;;2.77;1.93;;;29.70;99.90;;;;;;4974803;28;20259;-66
2022/08/12 12:22:05;;;;;;;2.40;1.73;;;29.90;99.90;;;;;;4974730;28;20279;-66
2022/08/12 12:24:31;;;;;;;2.97;1.77;;;30.00;99.90;;;;;;4974381;28;20801;-66
2022/08/12 12:26:58;;;;;;;3.42;1.75;;;30.10;99.90;;;;;;4973756;28;20219;-66
2022/08/12 12:29:25;;;;;;;4.43;1.70;;;30.30;99.90;;;;;;4974481;28;20208;-67
2022/08/12 12:31:51;;;;;;;3.33;1.77;;;30.20;99.90;;;;;;4974405;28;20244;-67
2022/08/12 12:34:19;;;;;;;3.60;1.60;;;30.10;99.90;;;;;;4974877;28;20588;-66
2022/08/12 12:36:47;;;;;;;4.37;1.70;;;30.00;99.90;;;;;;4974146;28;20212;-66
2022/08/12 12:39:14;;;;;;;3.27;2.00;;;30.00;98.60;;;;;;4974747;28;20204;-66
2022/08/12 12:41:41;;;;;;;4.10;2.03;;;30.00;99.90;;;;;;4974350;28;20667;-65
2022/08/12 12:44:07;;;;;;;5.10;1.90;;;30.00;95.80;;;;;;4974630;28;20248;-66
2022/08/12 12:46:34;;;;;;;3.20;1.73;;;29.70;91.70;;;;;;4973783;28;20212;-66
2022/08/12 12:49:01;;;;;;;6.93;1.77;;;29.90;94.40;;;;;;4974076;28;20706;-65
2022/08/12 12:51:29;;;;;;;4.17;1.77;;;29.90;93.80;;;;;;4974084;28;20655;-65
2022/08/12 12:53:56;;;;;;;3.33;1.77;;;29.80;94.20;;;;;;4971616;28;20216;-67
2022/08/12 12:56:24;;;;;;;3.80;2.67;;;29.80;92.20;;;;;;4970844;28;21051;-68
2022/08/12 12:58:52;;;;;;;5.30;2.47;;;29.80;90.40;;;;;;4971929;28;20315;-65
2022/08/12 13:01:20;;;;;;;3.30;1.70;;;29.80;92.80;;;;;;4971063;28;20726;-65
2022/08/12 13:03:52;;;;;;;1.83;1.60;;;29.90;92.30;;;;;;4972055;28;20646;-64
2022/08/12 13:06:24;;;;;;;3.70;1.77;;;30.10;99.90;;;;;;4971010;28;20236;-64
2022/08/12 13:08:54;;;;;;;6.30;1.57;;;30.20;99.90;;;;;;4971301;28;20220;-65
2022/08/12 13:11:20;;;;;;;2.42;1.80;;;30.20;95.40;;;;;;4971016;28;20243;-64
2022/08/12 13:13:49;;;;;;;3.63;1.80;;;30.40;99.00;;;;;;4971215;28;20303;-65
2022/08/12 13:16:19;;;;;;;2.30;1.80;;;30.50;99.90;;;;;;4970981;28;20324;-65
2022/08/12 13:18:47;;;;;;;3.83;1.50;;;30.40;97.60;;;;;;4971257;28;20212;-66
2022/08/12 13:21:16;;;;;;;3.27;1.70;;;30.10;91.90;;;;;;4971531;28;20204;-67
2022/08/12 13:23:44;;;;;;;3.60;1.50;;;30.00;91.90;;;;;;4970442;28;20212;-65
2022/08/12 13:26:12;;;;;;;5.13;1.83;;;30.00;90.90;;;;;;4970877;28;20209;-65
2022/08/12 13:28:41;;;;;;;3.63;1.80;;;30.10;92.30;;;;;;4971711;28;20697;-66
2022/08/12 13:31:08;;;;;;;4.13;1.63;;;30.40;99.80;;;;;;4970553;28;20954;-64
2022/08/12 13:33:35;;;;;;;2.47;1.60;;;30.40;94.00;;;;;;4971371;28;20227;-67
2022/08/12 13:36:03;;;;;;;1.92;1.55;;;30.40;92.90;;;;;;4969615;28;20221;-67
2022/08/12 13:38:37;;;;;;;2.63;1.83;;;30.30;92.10;;;;;;4971291;28;20208;-67
2022/08/12 13:41:04;;;;;;;4.50;1.70;;;30.10;88.70;;;;;;4970869;28;20204;-67
2022/08/12 13:43:33;;;;;;;4.73;1.67;;;30.00;90.90;;;;;;4970929;28;20209;-65
2022/08/12 13:46:00;;;;;;;5.17;1.70;;;30.20;91.30;;;;;;4970639;28;20781;-67
2022/08/12 13:48:28;;;;;;;5.33;1.63;;;30.30;89.50;;;;;;4971087;28;20200;-67
2022/08/12 13:50:56;;;;;;;2.83;1.83;;;30.20;97.80;;;;;;4970559;28;20691;-66
2022/08/12 13:53:22;;;;;;;3.70;2.40;;;30.10;87.70;;;;;;4970725;28;20671;-68
2022/08/12 13:55:58;;;;;;;4.23;1.50;;;30.30;94.10;;;;;;4971395;28;20204;-71
2022/08/12 13:58:25;;;;;;;4.67;1.70;;;30.10;88.60;;;;;;4971105;28;20289;-67
2022/08/12 14:00:55;;;;;;;1.83;1.60;;;30.30;92.70;;;;;;4970580;28;20259;-67
2022/08/12 14:03:23;;;;;;;5.53;2.70;;;30.30;90.60;;;;;;4972643;28;20672;-67
2022/08/12 14:05:50;;;;;;;4.70;1.97;;;30.30;93.00;;;;;;4972779;28;20214;-68
2022/08/12 14:08:17;;;;;;;2.23;1.83;;;30.40;91.30;;;;;;4972089;28;20219;-67
2022/08/12 14:10:48;;;;;;;2.93;1.70;;;30.00;87.40;;;;;;4972737;28;20672;-70
2022/08/12 14:13:23;;;;;;;4.47;2.03;;;30.10;88.50;;;;;;4972415;28;20315;-67
2022/08/12 14:15:52;;;;;;;3.03;1.40;;;30.20;91.80;;;;;;4972073;28;20219;-65
2022/08/12 14:18:22;;;;;;;5.30;1.77;;;30.30;90.40;;;;;;4972628;28;20299;-65
2022/08/12 14:20:50;;;;;;;3.43;1.70;;;30.30;91.40;;;;;;4971101;28;20265;-64
2022/08/12 14:23:24;;;;;;;5.40;1.73;;;30.20;90.80;;;;;;4972369;28;20719;-65
2022/08/12 14:25:51;;;;;;;5.50;1.70;;;30.10;87.00;;;;;;4971943;28;20207;-65
2022/08/12 14:28:20;;;;;;;4.70;1.80;;;30.20;90.90;;;;;;4972552;28;20747;-65
2022/08/12 14:30:50;;;;;;;3.07;1.80;;;30.10;90.50;;;;;;4972158;28;20774;-65
2022/08/12 14:33:17;;;;;;;2.63;1.93;;;30.20;92.10;;;;;;4972560;28;20310;-64
2022/08/12 14:35:45;;;;;;;6.90;2.80;;;30.30;93.60;;;;;;4972215;28;20212;-64
2022/08/12 14:38:14;;;;;;;2.20;1.80;;;30.40;92.50;;;;;;4972080;28;20680;-65